Time;durP1;ratioP1;P1;durP2;ratioP2;P2;SDS_P1;SDS_P2;PMS_P1;PMS_P2;Temp;Humidity;BMP_temperature;BMP_pressure;BME280_temperature;BME280_humidity;BME280_pressure;Samples;Min_cycle;Max_cycle;Signal;HPM_P1;HPM_P2
2022/09/18 00:00:13;;;;;;;2.57;1.73;;;;;;;-142.65;94.96;50164.81;5117634;28;20189;-71
2022/09/18 00:02:39;;;;;;;6.93;2.10;;;;;;;-142.65;95.15;50170.78;5117309;28;20185;-71
2022/09/18 00:05:06;;;;;;;10.47;2.27;;;;;;;-142.65;95.41;50170.78;5117263;28;20192;-71
2022/09/18 00:07:32;;;;;;;2.23;2.00;;;;;;;;;;5117136;28;20185;-70
2022/09/18 00:09:58;;;;;;;2.90;2.70;;;;;;;-142.65;95.70;50170.78;5117177;28;20193;-71
2022/09/18 00:12:25;;;;;;;5.17;2.37;;;;;;;;;;5117052;28;20217;-71
2022/09/18 00:14:51;;;;;;;4.30;2.20;;;;;;;-142.65;95.97;50178.75;5117349;28;20557;-71
2022/09/18 00:17:17;;;;;;;3.13;2.90;;;;;;;-142.65;95.94;50170.78;5117050;28;20677;-71
2022/09/18 00:19:44;;;;;;;4.23;2.03;;;;;;;;;;5117204;28;20576;-71
2022/09/18 00:22:10;;;;;;;5.07;2.30;;;;;;;-142.65;95.90;50170.78;5116940;28;20188;-71
2022/09/18 00:24:36;;;;;;;5.77;2.73;;;;;;;;;;5116725;28;20185;-71
2022/09/18 00:27:03;;;;;;;4.50;2.00;;;;;;;;;;5117144;28;20584;-71
2022/09/18 00:29:29;;;;;;;2.57;2.37;;;;;;;-142.65;96.27;50162.81;5098441;28;20216;-71
2022/09/18 00:31:56;;;;;;;3.67;2.00;;;;;;;-142.65;96.26;50170.78;5117002;28;20192;-71
2022/09/18 00:34:22;;;;;;;2.70;2.50;;;;;;;-142.65;96.28;50162.81;5116664;28;20189;-71
2022/09/18 00:36:49;;;;;;;4.20;1.93;;;;;;;-142.65;96.29;50170.78;5117126;28;20256;-71
2022/09/18 00:39:15;;;;;;;2.37;2.27;;;;;;;-142.65;96.21;50178.75;5116548;28;20733;-71
2022/09/18 00:41:43;;;;;;;6.73;2.63;;;;;;;-142.65;96.29;50168.78;5098262;28;20195;-71
2022/09/18 00:44:28;;;;;;;4.80;2.50;;;;;;;;;;5098497;28;20591;-71
2022/09/18 00:46:59;;;;;;;2.60;2.33;;;;;;;-142.65;96.32;50178.75;5098417;28;20181;-71
2022/09/18 00:49:26;;;;;;;2.07;1.90;;;;;;;-142.65;96.36;50174.75;5116404;28;20201;-71
2022/09/18 00:51:57;;;;;;;5.60;2.57;;;;;;;-142.65;96.46;50170.78;5115596;28;20191;-71
2022/09/18 00:54:33;;;;;;;11.63;2.70;;;;;;;-142.65;96.46;50170.78;5116702;28;20169;-71
2022/09/18 00:57:01;;;;;;;2.67;2.57;;;;;;;;;;5098026;28;20184;-71
2022/09/18 00:59:30;;;;;;;2.60;2.40;;;;;;;-142.65;96.97;50170.78;5116269;28;20282;-71
2022/09/18 01:01:58;;;;;;;2.40;2.20;;;;;;;-142.65;96.73;50168.78;5116173;28;20195;-71
2022/09/18 01:04:25;;;;;;;5.73;2.00;;;;;;;;;;5116400;28;20197;-71
2022/09/18 01:07:27;;;;;;;5.60;2.30;;;;;;;-142.65;96.87;50168.78;5097818;28;20193;-71
2022/09/18 01:09:57;;;;;;;2.47;2.33;;;;;;;;;;5116406;28;20176;-71
2022/09/18 01:12:23;;;;;;;9.20;2.37;;;;;;;;;;5115772;28;20235;-72
2022/09/18 01:14:59;;;;;;;4.83;2.13;;;;;;;-142.65;96.94;50178.75;5097693;28;20668;-72
2022/09/18 01:17:31;;;;;;;6.93;2.17;;;;;;;;;;5116465;28;20169;-71
2022/09/18 01:20:05;;;;;;;3.87;2.00;;;;;;;;;;5097908;28;20185;-71
2022/09/18 01:22:50;;;;;;;2.50;2.30;;;;;;;;;;5116153;28;20172;-71
2022/09/18 01:25:25;;;;;;;2.00;1.80;;;;;;;-142.65;96.70;50172.78;5097496;28;20193;-71
2022/09/18 01:28:08;;;;;;;2.77;2.00;;;;;;;-142.65;96.83;50172.78;5097369;28;20205;-72
2022/09/18 01:30:37;;;;;;;1.93;1.87;;;;;;;;;;5097471;28;20193;-72
2022/09/18 01:33:06;;;;;;;6.17;2.10;;;;;;;;;;5097269;28;20243;-71
2022/09/18 01:35:42;;;;;;;3.30;2.33;;;;;;;-142.65;96.75;50170.78;5115534;28;20673;-71
2022/09/18 01:38:22;;;;;;;3.30;2.73;;;;;;;-142.65;96.70;50170.78;5115499;28;20196;-71
2022/09/18 01:41:02;;;;;;;1.70;1.70;;;;;;;-142.65;96.67;50172.78;5097391;28;20700;-71
2022/09/18 01:43:30;;;;;;;4.63;1.90;;;;;;;-142.65;96.69;50178.75;5097236;28;20291;-71
2022/09/18 01:46:03;;;;;;;10.10;2.17;;;;;;;-142.65;96.71;50170.78;5097066;28;20659;-71
2022/09/18 01:48:49;;;;;;;5.00;2.00;;;;;;;-142.65;96.58;50174.75;5096943;28;20240;-71
2022/09/18 01:51:21;;;;;;;10.77;2.57;;;;;;;-142.65;96.58;50174.75;5097083;28;20556;-71
2022/09/18 01:53:57;;;;;;;8.50;2.23;;;;;;;-142.65;96.59;50170.78;5096856;28;20666;-71
2022/09/18 01:56:29;;;;;;;4.50;2.00;;;;;;;-142.65;96.46;50176.75;5096976;28;20213;-71
2022/09/18 01:59:00;;;;;;;11.87;2.10;;;;;;;-142.65;96.60;50170.78;5096745;28;20266;-71
2022/09/18 02:01:39;;;;;;;8.80;2.20;;;;;;;;;;5096980;28;20246;-71
2022/09/18 02:04:18;;;;;;;6.20;1.70;;;;;;;-142.65;96.31;50174.75;5095964;28;20189;-71
2022/09/18 02:06:58;;;;;;;1.90;1.80;;;;;;;-142.65;96.25;50174.75;5096730;28;20544;-71
2022/09/18 02:09:26;;;;;;;6.53;2.40;;;;;;;-142.65;96.15;50182.72;5096558;28;20214;-71
2022/09/18 02:11:55;;;;;;;7.60;2.27;;;;;;;;;;5114867;28;20206;-71
2022/09/18 02:14:37;;;;;;;5.60;2.00;;;;;;;-142.65;96.32;50168.78;5096447;28;20244;-71
2022/09/18 02:17:27;;;;;;;3.27;2.27;;;;;;;;;;5114221;28;20193;-70
2022/09/18 02:20:19;;;;;;;4.50;1.80;;;;;;;-142.65;96.73;50176.75;5096444;28;20190;-71
2022/09/18 02:22:49;;;;;;;5.63;2.30;;;;;;;-142.65;96.59;50170.78;5096465;28;20178;-71
2022/09/18 02:25:24;;;;;;;4.63;2.23;;;;;;;-142.65;96.56;50170.78;5096286;28;20289;-71
2022/09/18 02:27:50;;;;;;;2.10;2.00;;;;;;;;;;5114727;28;20212;-71
2022/09/18 02:30:17;;;;;;;3.53;2.07;;;;;;;-142.65;96.59;50172.78;5096479;28;20185;-71
2022/09/18 02:32:44;;;;;;;6.63;2.60;;;;;;;-142.65;96.75;50164.81;5096187;28;20209;-71
2022/09/18 02:35:10;;;;;;;3.07;2.30;;;;;;;-142.65;96.85;50170.78;5114676;28;20616;-71
2022/09/18 02:38:03;;;;;;;5.33;2.50;;;;;;;-142.65;96.49;50176.75;5096360;28;20565;-71
2022/09/18 02:40:36;;;;;;;4.07;2.40;;;;;;;;;;5096142;28;20189;-71
2022/09/18 02:43:19;;;;;;;5.73;2.57;;;;;;;-142.65;96.43;50178.75;5096039;28;20529;-71
2022/09/18 02:46:10;;;;;;;5.07;1.80;;;;;;;-142.65;96.70;50174.75;5114518;28;20268;-71
2022/09/18 02:48:42;;;;;;;1.50;1.50;;;;;;;;;;5095874;28;20209;-71
2022/09/18 02:51:30;;;;;;;5.17;2.20;;;;;;;-142.65;96.60;50180.75;5095965;28;20182;-71
2022/09/18 02:54:12;;;;;;;4.70;2.30;;;;;;;-142.65;96.72;50170.78;5096662;28;20209;-71
2022/09/18 02:56:52;;;;;;;6.67;2.83;;;;;;;-142.65;97.02;50162.81;5095835;28;20173;-71
2022/09/18 02:59:46;;;;;;;6.37;1.97;;;;;;;-142.65;97.09;50178.75;5095820;28;20308;-71
2022/09/18 03:02:19;;;;;;;4.13;3.00;;;;;;;-142.65;97.10;50176.75;5095812;28;20203;-71
2022/09/18 03:04:45;;;;;;;9.83;2.90;;;;;;;-142.65;97.00;50170.78;5096202;28;20613;-71
2022/09/18 03:07:32;;;;;;;3.60;2.43;;;;;;;-142.65;96.83;50170.78;5113268;28;20197;-71
2022/09/18 03:09:58;;;;;;;4.20;2.67;;;;;;;-142.65;96.95;50172.78;5095642;28;20238;-72
2022/09/18 03:12:25;;;;;;;5.90;3.77;;;;;;;-142.65;97.25;50174.75;5095628;28;20287;-71
2022/09/18 03:14:51;;;;;;;10.10;3.00;;;;;;;;;;5095274;28;20200;-71
2022/09/18 03:17:17;;;;;;;2.60;2.50;;;;;;;-142.65;97.04;50172.78;5114317;28;20189;-72
2022/09/18 03:19:44;;;;;;;3.53;2.90;;;;;;;-142.65;96.69;50170.78;5095446;28;20213;-72
2022/09/18 03:22:12;;;;;;;4.40;2.97;;;;;;;;;;5095762;28;20185;-71
2022/09/18 03:24:40;;;;;;;5.00;2.63;;;;;;;-142.65;96.58;50164.81;5095506;28;20213;-71
2022/09/18 03:27:06;;;;;;;2.70;2.53;;;;;;;-142.65;96.70;50164.81;5095494;28;20280;-71
2022/09/18 03:29:34;;;;;;;5.57;2.60;;;;;;;-142.65;96.75;50172.78;5096302;28;20231;-71
2022/09/18 03:32:01;;;;;;;5.13;2.93;;;;;;;-142.65;96.51;50176.75;5113617;28;20180;-71
2022/09/18 03:34:34;;;;;;;3.07;2.70;;;;;;;-142.65;96.56;50164.81;5095643;28;20251;-72
2022/09/18 03:37:00;;;;;;;2.73;2.63;;;;;;;-142.65;96.61;50178.75;5095389;28;20217;-71
2022/09/18 03:39:26;;;;;;;9.50;2.93;;;;;;;-142.65;96.54;50170.78;5095276;28;20215;-72
2022/09/18 03:41:53;;;;;;;3.30;3.10;;;;;;;-142.65;96.70;50174.75;5095382;28;20193;-71
2022/09/18 03:44:20;;;;;;;3.40;2.97;;;;;;;-142.65;96.71;50172.78;5113763;28;20594;-72
2022/09/18 03:46:46;;;;;;;10.20;3.10;;;;;;;;;;5095264;28;20199;-71
2022/09/18 03:49:13;;;;;;;2.93;2.73;;;;;;;;;;5095419;28;20219;-71
2022/09/18 03:51:40;;;;;;;4.87;3.13;;;;;;;-142.65;96.99;50172.78;5095179;28;20189;-71
2022/09/18 03:54:06;;;;;;;2.57;2.47;;;;;;;-142.65;97.27;50170.78;5112110;28;20306;-71
2022/09/18 03:56:41;;;;;;;3.93;2.50;;;;;;;-142.65;97.37;50164.81;5095207;28;20213;-71
2022/09/18 03:59:14;;;;;;;2.63;2.63;;;;;;;-142.65;97.07;50168.78;5095299;28;20308;-72
2022/09/18 04:02:01;;;;;;;5.53;2.37;;;;;;;-142.65;97.35;50162.81;5095652;28;20181;-71
2022/09/18 04:04:47;;;;;;;4.87;3.17;;;;;;;;;;5113167;28;20185;-72
2022/09/18 04:07:46;;;;;;;6.97;3.20;;;;;;;-142.65;97.90;50172.78;5112986;28;20579;-72
2022/09/18 04:10:41;;;;;;;2.80;2.70;;;;;;;-142.65;98.14;50170.78;5084939;28;20598;-71
2022/09/18 04:13:08;;;;;;;3.60;3.00;;;;;;;-142.65;98.10;50170.78;5078175;28;20580;-71
2022/09/18 04:15:35;;;;;;;2.97;2.80;;;;;;;-142.65;98.10;50168.78;5095835;28;20197;-71
2022/09/18 04:18:02;;;;;;;7.67;3.13;;;;;;;-142.65;98.12;50162.81;5094939;28;20217;-71
2022/09/18 04:20:28;;;;;;;4.30;3.73;;;;;;;-142.65;98.47;50174.75;5113415;28;20249;-71
2022/09/18 04:22:56;;;;;;;3.30;3.10;;;;;;;-142.65;98.67;50162.81;5095164;28;20201;-72
2022/09/18 04:25:22;;;;;;;3.40;2.90;;;;;;;;;;5113130;28;20533;-72
2022/09/18 04:27:49;;;;;;;2.90;2.63;;;;;;;;;;5096996;28;20618;-71
2022/09/18 04:30:17;;;;;;;3.93;2.83;;;;;;;;;;5099056;28;20564;-72
2022/09/18 04:32:44;;;;;;;4.00;2.60;;;;;;;-142.65;98.41;50170.78;5098397;28;20610;-71
2022/09/18 04:35:11;;;;;;;2.40;2.40;;;;;;;-142.65;98.59;50170.78;5116715;28;20276;-72
2022/09/18 04:37:37;;;;;;;2.70;2.60;;;;;;;-142.65;98.45;50168.78;5098877;28;20529;-71
2022/09/18 04:40:05;;;;;;;3.67;2.77;;;;;;;-142.65;98.56;50174.75;5098365;28;20555;-72
2022/09/18 04:42:32;;;;;;;2.77;2.57;;;;;;;-142.65;98.62;50168.78;5098582;28;20271;-72
2022/09/18 04:44:59;;;;;;;2.80;2.57;;;;;;;;;;5098262;28;20211;-72
2022/09/18 04:47:26;;;;;;;2.53;1.90;;;;;;;-142.65;98.62;50164.81;5116430;28;20178;-72
2022/09/18 04:49:52;;;;;;;9.47;2.63;;;;;;;-142.65;98.65;50172.78;5098166;28;20193;-72
2022/09/18 04:52:19;;;;;;;15.13;2.60;;;;;;;;;;5098122;28;20193;-72
2022/09/18 04:54:45;;;;;;;4.03;2.33;;;;;;;-142.65;98.87;50162.81;5098088;28;20334;-72
2022/09/18 04:57:12;;;;;;;8.37;2.40;;;;;;;-142.65;98.78;50170.78;5098929;28;20209;-72
2022/09/18 04:59:42;;;;;;;5.20;1.80;;;;;;;-142.65;98.90;50168.78;5097933;28;20232;-72
2022/09/18 05:02:08;;;;;;;2.53;1.90;;;;;;;-142.65;98.78;50170.78;5097922;28;20191;-72
2022/09/18 05:04:35;;;;;;;1.73;1.73;;;;;;;-142.65;98.58;50168.78;5097768;28;20276;-72
2022/09/18 05:07:11;;;;;;;3.53;1.90;;;;;;;-142.65;98.83;50180.75;5098775;28;20184;-72
2022/09/18 05:09:38;;;;;;;3.03;2.20;;;;;;;-142.65;99.05;50174.75;5097809;28;20205;-72
2022/09/18 05:12:05;;;;;;;5.17;2.03;;;;;;;;;;5097695;28;20202;-72
2022/09/18 05:14:34;;;;;;;1.67;1.60;;;;;;;;;;5097621;28;20741;-72
2022/09/18 05:17:02;;;;;;;2.10;1.90;;;;;;;-142.65;98.90;50172.78;5097958;28;20266;-72
2022/09/18 05:19:37;;;;;;;4.73;2.50;;;;;;;-142.65;99.02;50164.81;5097624;28;20222;-71
2022/09/18 05:22:10;;;;;;;4.47;2.33;;;;;;;-142.65;99.09;50170.78;5098077;28;20221;-71
2022/09/18 05:24:40;;;;;;;2.43;2.33;;;;;;;-142.65;98.97;50168.78;5097530;28;20189;-72
2022/09/18 05:27:07;;;;;;;2.07;2.07;;;;;;;-142.65;99.13;50172.78;5097476;28;20201;-71
2022/09/18 05:29:34;;;;;;;2.93;2.23;;;;;;;-142.65;99.09;50164.81;5116214;28;20240;-71
2022/09/18 05:32:08;;;;;;;4.73;2.93;;;;;;;-142.65;99.17;50164.81;5097393;28;20201;-72
2022/09/18 05:34:36;;;;;;;2.60;2.50;;;;;;;-142.65;99.14;50170.78;5097237;28;20205;-72
2022/09/18 05:37:02;;;;;;;3.13;2.63;;;;;;;-142.65;99.02;50168.78;5115519;28;20189;-72
2022/09/18 05:39:28;;;;;;;2.07;1.93;;;;;;;-142.65;99.23;50168.78;5096941;28;20244;-71
2022/09/18 05:41:57;;;;;;;8.53;3.27;;;;;;;-142.65;99.17;50168.78;5097991;28;20197;-71
2022/09/18 05:44:23;;;;;;;3.17;2.93;;;;;;;-142.65;99.24;50170.78;5115667;28;20624;-72
2022/09/18 05:46:51;;;;;;;3.97;3.77;;;;;;;-142.65;99.43;50170.78;5097075;28;20197;-72
2022/09/18 05:49:17;;;;;;;4.43;4.00;;;;;;;-142.65;99.40;50168.78;5115748;28;20201;-72
2022/09/18 05:51:45;;;;;;;7.33;4.30;;;;;;;-142.65;99.37;50172.78;5097570;28;20181;-72
2022/09/18 05:54:13;;;;;;;6.17;4.87;;;;;;;-142.65;99.29;50118.97;5096872;28;20216;-71
2022/09/18 05:56:46;;;;;;;5.63;5.43;;;;;;;-142.65;99.28;50174.75;5096931;28;20242;-71
2022/09/18 05:59:13;;;;;;;5.10;5.00;;;;;;;-142.65;99.15;50170.78;5115040;28;20211;-71
2022/09/18 06:01:42;;;;;;;5.10;4.80;;;;;;;-142.65;99.06;50182.72;5097630;28;20193;-71
2022/09/18 06:04:12;;;;;;;5.90;5.40;;;;;;;-142.65;99.05;50176.75;5097749;28;20678;-71
2022/09/18 06:06:44;;;;;;;5.27;4.90;;;;;;;;;;5097002;28;20181;-71
2022/09/18 06:09:13;;;;;;;5.63;5.20;;;;;;;-142.65;99.33;50178.75;5096587;28;20223;-71
2022/09/18 06:11:39;;;;;;;6.20;4.20;;;;;;;-142.65;99.51;50164.81;5114972;28;20534;-71
2022/09/18 06:14:05;;;;;;;5.27;4.27;;;;;;;-142.65;99.56;50164.81;5096490;28;20209;-71
2022/09/18 06:16:32;;;;;;;5.10;4.77;;;;;;;;;;5096538;28;20189;-71
2022/09/18 06:19:06;;;;;;;4.07;3.80;;;;;;;-142.65;99.24;50170.78;5096686;28;20321;-71
2022/09/18 06:21:32;;;;;;;4.50;3.77;;;;;;;;;;5096363;28;20193;-71
2022/09/18 06:23:59;;;;;;;4.00;4.00;;;;;;;-142.65;99.16;50164.81;5097195;28;20637;-71
2022/09/18 06:26:34;;;;;;;3.77;3.57;;;;;;;;;;5096295;28;20181;-71
2022/09/18 06:29:01;;;;;;;3.87;3.77;;;;;;;;;;5096175;28;20300;-71
2022/09/18 06:31:33;;;;;;;4.57;4.10;;;;;;;-142.65;99.67;50174.75;5096525;28;20238;-71
2022/09/18 06:34:05;;;;;;;5.30;4.57;;;;;;;-142.65;99.64;50174.75;5096135;28;20314;-71
2022/09/18 06:36:32;;;;;;;6.60;4.57;;;;;;;-142.65;99.66;50170.78;5096131;28;20292;-71
2022/09/18 06:39:17;;;;;;;5.43;4.47;;;;;;;-142.65;99.64;50174.75;5096079;28;20212;-71
2022/09/18 06:41:45;;;;;;;4.23;4.03;;;;;;;;;;5095994;28;20200;-71
2022/09/18 06:44:22;;;;;;;4.37;4.03;;;;;;;;;;5113284;28;20208;-71
2022/09/18 06:46:59;;;;;;;4.23;3.93;;;;;;;-142.65;99.66;50172.78;5096874;28;20187;-71
2022/09/18 06:49:33;;;;;;;5.60;4.10;;;;;;;-142.65;99.68;50170.78;5095619;28;20213;-71
2022/09/18 06:52:02;;;;;;;5.00;3.20;;;;;;;-142.65;99.51;50170.78;5096139;28;20215;-71
2022/09/18 06:54:29;;;;;;;2.97;2.77;;;;;;;-142.65;99.42;50178.75;5095777;28;20209;-72
2022/09/18 06:56:56;;;;;;;4.30;2.70;;;;;;;-142.65;99.19;50174.75;5095851;28;20240;-72
2022/09/18 06:59:22;;;;;;;3.73;3.07;;;;;;;-142.65;99.25;50168.78;5095710;28;20675;-72
2022/09/18 07:01:50;;;;;;;3.57;2.97;;;;;;;-142.65;98.96;50168.78;5114300;28;20265;-73
2022/09/18 07:04:24;;;;;;;3.70;2.70;;;;;;;-142.65;98.84;50174.75;5096078;28;20185;-73
2022/09/18 07:06:51;;;;;;;2.60;2.40;;;;;;;-142.65;98.89;50168.78;5095742;28;20203;-73
2022/09/18 07:09:17;;;;;;;2.70;2.50;;;;;;;-142.65;99.04;50168.78;5114353;28;20212;-72
2022/09/18 07:12:17;;;;;;;2.00;2.00;;;;;;;-142.65;99.02;50162.81;5068629;28;20212;-73
2022/09/18 07:14:47;;;;;;;2.27;2.17;;;;;;;;;;5095859;28;20727;-72
2022/09/18 07:17:14;;;;;;;2.50;2.40;;;;;;;-142.65;99.09;50168.78;5096098;28;20193;-72
2022/09/18 07:19:46;;;;;;;2.00;2.00;;;;;;;-142.65;99.23;50172.78;5095466;28;20259;-73
2022/09/18 07:22:15;;;;;;;4.87;2.90;;;;;;;-142.65;99.58;50176.75;5095417;28;20564;-73
2022/09/18 07:24:45;;;;;;;3.60;3.30;;;;;;;-142.65;99.79;50164.81;5095822;28;20197;-73
2022/09/18 07:27:12;;;;;;;3.40;3.30;;;;;;;-142.65;99.38;50172.78;5095442;28;20181;-73
2022/09/18 07:29:40;;;;;;;7.87;3.37;;;;;;;;;;5095389;28;20213;-73
2022/09/18 07:32:08;;;;;;;3.00;2.80;;;;;;;-142.65;99.29;50174.75;5095872;28;20224;-72
2022/09/18 07:34:35;;;;;;;3.50;3.47;;;;;;;;;;5095372;28;20299;-72
2022/09/18 07:37:02;;;;;;;5.33;2.63;;;;;;;-142.65;98.73;50174.75;5113956;28;20638;-72
2022/09/18 07:39:29;;;;;;;3.13;2.83;;;;;;;-142.65;98.76;50172.78;5095331;28;20223;-72
2022/09/18 07:42:14;;;;;;;7.53;2.60;;;;;;;;;;5113862;28;20302;-73
2022/09/18 07:44:47;;;;;;;2.67;2.23;;;;;;;;;;5095609;28;20208;-72
2022/09/18 07:47:14;;;;;;;5.03;2.50;;;;;;;-142.65;98.06;50172.78;5095245;28;20611;-73
2022/09/18 07:49:41;;;;;;;12.20;1.77;;;;;;;-142.65;97.81;50118.97;5095569;28;20634;-72
2022/09/18 07:52:09;;;;;;;2.33;2.10;;;;;;;-142.65;97.21;50168.78;5078755;28;20189;-72
2022/09/18 07:54:49;;;;;;;1.53;1.50;;;;;;;;;;5080383;28;20205;-73
2022/09/18 07:57:25;;;;;;;3.10;1.80;;;;;;;-142.65;96.95;50168.78;5095943;28;20226;-72
2022/09/18 08:00:06;;;;;;;1.70;1.33;;;;;;;;;;5095802;28;20632;-73
2022/09/18 08:02:40;;;;;;;1.43;1.40;;;;;;;-142.65;95.77;50174.75;5115270;28;20177;-73
2022/09/18 08:05:09;;;;;;;1.63;1.60;;;;;;;-142.65;95.45;50117.00;5099301;28;20187;-73
2022/09/18 08:07:41;;;;;;;1.30;1.30;;;;;;;-142.65;95.00;50170.78;5117542;28;20260;-73
2022/09/18 08:10:29;;;;;;;5.53;1.57;;;;;;;-142.65;95.26;50170.78;5116723;28;20612;-73
2022/09/18 08:13:11;;;;;;;1.07;1.07;;;;;;;-142.65;95.52;50170.78;5099115;28;20192;-73
2022/09/18 08:15:58;;;;;;;1.67;1.37;;;;;;;-142.65;95.09;50168.78;5098845;28;20208;-73
2022/09/18 08:18:45;;;;;;;2.13;1.10;;;;;;;-142.65;95.34;50174.75;5116419;28;20209;-73
2022/09/18 08:21:38;;;;;;;1.30;1.30;;;;;;;-142.65;95.11;50170.78;5098812;28;20197;-72
2022/09/18 08:24:08;;;;;;;1.20;1.20;;;;;;;-142.65;95.46;50168.78;5098742;28;20178;-73
2022/09/18 08:26:37;;;;;;;2.47;1.63;;;;;;;-142.65;95.53;50170.78;5098903;28;20189;-73
2022/09/18 08:29:05;;;;;;;1.80;1.80;;;;;;;;;;5098569;28;20236;-73
2022/09/18 08:31:32;;;;;;;1.63;1.53;;;;;;;-142.65;95.63;50172.78;5098620;28;20205;-73
2022/09/18 08:34:00;;;;;;;1.50;1.50;;;;;;;-142.65;95.92;50162.81;5098415;28;20221;-73
2022/09/18 08:36:27;;;;;;;1.77;1.77;;;;;;;-142.65;96.22;50174.75;5098482;28;20193;-73
2022/09/18 08:38:59;;;;;;;1.50;1.50;;;;;;;;;;5098415;28;20304;-73
2022/09/18 08:41:58;;;;;;;2.20;1.97;;;;;;;-142.65;96.51;50168.78;5116918;28;20166;-72
2022/09/18 08:44:28;;;;;;;1.97;1.60;;;;;;;;;;5098470;28;20207;-72
2022/09/18 08:47:03;;;;;;;6.97;2.33;;;;;;;-142.65;96.85;50178.75;5098332;28;20647;-72
2022/09/18 08:49:36;;;;;;;1.60;1.60;;;;;;;-142.65;97.30;50170.78;5098329;28;20240;-72
2022/09/18 08:52:16;;;;;;;1.70;1.70;;;;;;;-142.65;97.23;50174.75;5098246;28;20557;-72
2022/09/18 08:54:54;;;;;;;1.73;1.73;;;;;;;-142.65;97.91;50118.97;5098082;28;20203;-72
2022/09/18 08:57:48;;;;;;;2.17;2.17;;;;;;;-142.65;97.92;50170.78;5098552;28;20193;-73
2022/09/18 09:00:33;;;;;;;2.03;1.93;;;;;;;-142.65;98.03;50168.78;5098020;28;20200;-73
2022/09/18 09:03:32;;;;;;;4.53;2.20;;;;;;;-142.65;98.32;50170.78;5098610;28;20285;-74
2022/09/18 09:06:37;;;;;;;2.60;2.47;;;;;;;-142.65;98.38;50170.78;5097955;28;20545;-74
2022/09/18 09:09:30;;;;;;;2.03;1.93;;;;;;;-142.65;98.86;50168.78;5092477;28;20258;-75
2022/09/18 09:12:25;;;;;;;2.40;2.30;;;;;;;-142.65;99.13;50172.78;5097714;28;20193;-75
2022/09/18 09:15:11;;;;;;;4.97;2.30;;;;;;;-142.65;99.22;50164.81;5097692;28;20211;-75
2022/09/18 09:17:45;;;;;;;1.87;1.87;;;;;;;-142.65;99.69;50170.78;5097678;28;20181;-76
2022/09/18 09:20:24;;;;;;;2.03;2.03;;;;;;;-142.65;100.00;50170.78;5097647;28;20285;-76
2022/09/18 09:23:03;;;;;;;2.83;2.83;;;;;;;-142.65;99.38;50174.75;5097917;28;20654;-76
2022/09/18 09:25:51;;;;;;;2.43;2.23;;;;;;;;;;5098329;28;20188;-76
2022/09/18 09:28:53;;;;;;;1.40;1.40;;;;;;;;;;5097453;28;20208;-76
2022/09/18 09:31:53;;;;;;;1.97;1.97;;;;;;;-142.65;99.26;50174.75;5115073;28;20284;-76
2022/09/18 09:34:51;;;;;;;2.40;2.27;;;;;;;;;;5092172;28;20298;-76
2022/09/18 09:37:35;;;;;;;2.00;1.63;;;;;;;;;;5097234;28;20201;-76
2022/09/18 09:40:10;;;;;;;1.20;1.20;;;;;;;-142.65;99.50;50178.75;5097297;28;20189;-76
2022/09/18 09:42:54;;;;;;;1.80;1.70;;;;;;;-142.65;99.43;50168.78;5097271;28;20188;-76
2022/09/18 09:45:32;;;;;;;2.37;2.27;;;;;;;-142.65;99.68;50172.78;5115709;28;20256;-76
2022/09/18 09:48:11;;;;;;;2.33;2.13;;;;;;;-142.65;99.47;50162.81;5097657;28;20213;-76
2022/09/18 09:50:50;;;;;;;3.40;1.50;;;;;;;-142.65;99.41;50174.75;5115602;28;20165;-76
2022/09/18 09:53:17;;;;;;;2.40;2.20;;;;;;;-142.65;99.48;50170.78;5114047;28;20215;-76
2022/09/18 09:56:00;;;;;;;3.03;2.00;;;;;;;-142.65;99.50;50168.78;5096937;28;20205;-76
2022/09/18 09:58:39;;;;;;;1.90;1.80;;;;;;;-142.65;99.48;50184.72;5096840;28;20231;-76
2022/09/18 10:01:14;;;;;;;2.50;1.60;;;;;;;-142.65;99.77;50174.75;5096928;28;20216;-76
2022/09/18 10:03:54;;;;;;;3.80;1.77;;;;;;;;;;5097246;28;20362;-76
2022/09/18 10:06:29;;;;;;;1.80;1.50;;;;;;;;;;5097593;28;20181;-76
2022/09/18 10:09:07;;;;;;;4.87;1.97;;;;;;;-142.65;99.50;50170.78;5096634;28;20209;-76
2022/09/18 10:11:34;;;;;;;1.97;1.87;;;;;;;;;;5096440;28;20230;-76
2022/09/18 10:14:14;;;;;;;2.90;2.70;;;;;;;-142.65;99.90;50170.78;5096619;28;20263;-76
2022/09/18 10:16:52;;;;;;;5.20;3.50;;;;;;;-142.65;100.00;50168.78;5114078;28;20177;-76
2022/09/18 10:19:20;;;;;;;3.77;3.67;;;;;;;;;;5096509;28;20212;-76
2022/09/18 10:21:51;;;;;;;3.80;3.70;;;;;;;-142.65;99.96;50172.78;5096314;28;20283;-76
2022/09/18 10:24:27;;;;;;;4.53;4.27;;;;;;;-142.65;100.00;50176.75;5078958;28;20390;-76
2022/09/18 10:26:59;;;;;;;3.40;3.17;;;;;;;-142.65;100.00;50170.78;5096799;28;20545;-76
2022/09/18 10:29:27;;;;;;;3.43;3.33;;;;;;;;;;5096421;28;20213;-76
2022/09/18 10:32:02;;;;;;;5.47;2.30;;;;;;;-142.65;99.56;50176.75;5096291;28;20185;-76
2022/09/18 10:34:48;;;;;;;2.30;2.20;;;;;;;-142.65;99.29;50170.78;5096201;28;20197;-76
2022/09/18 10:37:27;;;;;;;1.63;1.53;;;;;;;-142.65;98.50;50164.81;5096194;28;20182;-76
2022/09/18 10:40:00;;;;;;;1.70;1.70;;;;;;;-142.65;98.47;50162.81;5096966;28;20556;-76
2022/09/18 10:42:31;;;;;;;1.30;1.30;;;;;;;;;;5096362;28;20280;-77
2022/09/18 10:45:26;;;;;;;2.57;1.47;;;;;;;;;;5096391;28;20185;-76
2022/09/18 10:48:15;;;;;;;3.60;1.07;;;;;;;-142.65;95.83;50170.78;5095992;28;20205;-76
2022/09/18 10:50:54;;;;;;;1.20;1.10;;;;;;;;;;5095859;28;20216;-76
2022/09/18 10:53:33;;;;;;;1.10;1.10;;;;;;;-142.65;93.83;50168.78;5096428;28;20536;-76
2022/09/18 10:56:18;;;;;;;0.87;0.87;;;;;;;-142.65;92.67;50172.78;5095829;28;20213;-76
2022/09/18 10:58:46;;;;;;;1.37;1.37;;;;;;;;;;5095765;28;20299;-76
2022/09/18 11:01:13;;;;;;;1.00;1.00;;;;;;;-142.65;93.25;50162.81;5095478;28;20197;-75
2022/09/18 11:03:58;;;;;;;4.30;1.30;;;;;;;;;;5095799;28;20181;-75
2022/09/18 11:06:28;;;;;;;1.27;1.20;;;;;;;;;;5095781;28;20208;-76
2022/09/18 11:09:01;;;;;;;1.47;1.20;;;;;;;-142.65;94.46;50117.00;5095690;28;20213;-75
2022/09/18 11:11:32;;;;;;;1.20;1.10;;;;;;;-142.65;94.42;50162.81;5095787;28;20197;-75
2022/09/18 11:14:17;;;;;;;1.60;1.50;;;;;;;-142.65;94.73;50170.78;5095630;28;20185;-75
2022/09/18 11:17:00;;;;;;;1.20;1.20;;;;;;;;;;5095597;28;20181;-75
2022/09/18 11:19:34;;;;;;;1.20;1.20;;;;;;;;;;5095553;28;20247;-75
2022/09/18 11:22:26;;;;;;;5.60;1.77;;;;;;;;;;5095441;28;20193;-75
2022/09/18 11:25:05;;;;;;;1.53;1.37;;;;;;;;;;5112345;28;20185;-75
2022/09/18 11:27:44;;;;;;;1.33;1.33;;;;;;;-142.65;94.15;50174.75;5095432;28;20195;-74
2022/09/18 11:30:19;;;;;;;0.90;0.90;;;;;;;-142.65;94.23;50174.75;5095524;28;20685;-75
2022/09/18 11:32:47;;;;;;;1.00;1.00;;;;;;;;;;5095457;28;20188;-75
2022/09/18 11:35:18;;;;;;;1.47;1.47;;;;;;;-142.65;95.25;50174.75;5095380;28;20254;-75
2022/09/18 11:37:52;;;;;;;1.63;1.53;;;;;;;-142.65;95.63;50168.78;5099460;28;20216;-74
2022/09/18 11:40:28;;;;;;;2.00;1.53;;;;;;;-142.65;95.57;50170.78;5099546;28;20185;-74
2022/09/18 11:42:55;;;;;;;1.33;1.23;;;;;;;;;;5118132;28;20172;-75
2022/09/18 11:45:35;;;;;;;1.87;1.83;;;;;;;-142.65;95.77;50168.78;5099387;28;20189;-75
2022/09/18 11:48:20;;;;;;;1.80;1.70;;;;;;;-142.65;96.01;50168.78;5117799;28;20679;-75
2022/09/18 11:50:50;;;;;;;4.63;1.73;;;;;;;-142.65;96.43;50162.81;5099797;28;20203;-74
2022/09/18 11:53:22;;;;;;;2.63;1.93;;;;;;;-142.65;96.56;50168.78;5099591;28;20189;-74
2022/09/18 11:56:13;;;;;;;2.70;2.60;;;;;;;-142.65;96.80;50168.78;5118053;28;20242;-74
2022/09/18 11:58:46;;;;;;;3.40;3.30;;;;;;;-142.65;96.83;50170.78;5118254;28;20675;-74
2022/09/18 12:01:31;;;;;;;2.00;2.00;;;;;;;-142.65;96.79;50170.78;5099134;28;20268;-75
2022/09/18 12:04:16;;;;;;;3.50;2.00;;;;;;;-142.65;96.85;50174.75;5099364;28;20193;-74
2022/09/18 12:07:04;;;;;;;1.90;1.80;;;;;;;-142.65;96.62;50168.78;5099068;28;20191;-74
2022/09/18 12:09:57;;;;;;;1.80;1.73;;;;;;;-142.65;95.69;50170.78;5098967;28;20204;-74
2022/09/18 12:12:31;;;;;;;1.70;1.60;;;;;;;-142.65;95.57;50168.78;5098780;28;20197;-74
2022/09/18 12:15:05;;;;;;;2.00;1.90;;;;;;;-142.65;95.82;50172.78;5098903;28;20237;-74
2022/09/18 12:17:54;;;;;;;2.43;1.87;;;;;;;-142.65;95.35;50170.78;5099102;28;20654;-75
2022/09/18 12:20:38;;;;;;;1.43;1.43;;;;;;;-142.65;95.07;50170.78;5117388;28;20517;-74
2022/09/18 12:23:13;;;;;;;1.93;1.70;;;;;;;-142.65;96.10;50168.78;5098736;28;20272;-75
2022/09/18 12:26:10;;;;;;;1.77;1.77;;;;;;;-142.65;94.77;50164.81;5117255;28;20292;-75
2022/09/18 12:29:21;;;;;;;1.53;1.43;;;;;;;-142.65;95.25;50168.78;5097838;28;20208;-75